Time;durP1;ratioP1;P1;durP2;ratioP2;P2;SDS_P1;SDS_P2;PMS_P1;PMS_P2;Temp;Humidity;BMP_temperature;BMP_pressure;BME280_temperature;BME280_humidity;BME280_pressure;Samples;Min_cycle;Max_cycle;Signal;HPM_P1;HPM_P2
2021/08/26 00:00:23;;;;;;;3.40;1.30;;;16.70;64.00;;;;;;5075382;28;20016;-74
2021/08/26 00:05:56;;;;;;;2.08;0.90;;;16.80;63.60;;;;;;5070510;28;20537;-63
2021/08/26 00:08:24;;;;;;;2.40;1.33;;;16.80;64.80;;;;;;5071457;28;20477;-71
2021/08/26 00:10:53;;;;;;;1.48;1.00;;;16.90;64.00;;;;;;5071572;28;20036;-71
2021/08/26 00:13:22;;;;;;;3.45;1.25;;;16.90;65.60;;;;;;5073742;28;20020;-74
2021/08/26 00:15:50;;;;;;;2.85;1.15;;;16.90;63.30;;;;;;5073855;28;20039;-72
2021/08/26 00:18:23;;;;;;;3.65;1.27;;;17.00;64.10;;;;;;5072200;28;20027;-68
2021/08/26 00:20:53;;;;;;;2.08;0.88;;;17.00;62.00;;;;;;5073013;28;20020;-73
2021/08/26 00:23:24;;;;;;;1.67;0.90;;;17.10;64.30;;;;;;5073283;28;20452;-75
2021/08/26 00:25:52;;;;;;;2.42;1.00;;;17.20;63.20;;;;;;5073466;28;20024;-70
2021/08/26 00:28:20;;;;;;;1.27;1.13;;;17.20;65.00;;;;;;5073099;28;20032;-70
2021/08/26 00:30:47;;;;;;;1.70;0.85;;;17.30;64.60;;;;;;5072955;28;20021;-71
2021/08/26 00:33:15;;;;;;;1.95;0.95;;;17.30;64.10;;;;;;5072454;28;20040;-69
2021/08/26 00:35:42;;;;;;;3.45;0.70;;;17.40;64.30;;;;;;5072731;28;20029;-71
2021/08/26 00:38:10;;;;;;;3.95;1.20;;;17.50;62.80;;;;;;5073420;28;20056;-71
2021/08/26 00:40:37;;;;;;;2.45;0.80;;;17.50;63.10;;;;;;5072654;28;20499;-68
2021/08/26 00:43:05;;;;;;;1.08;0.80;;;17.60;64.20;;;;;;5072905;28;20098;-70
2021/08/26 00:45:33;;;;;;;0.98;0.80;;;17.70;61.00;;;;;;5072819;28;20138;-71
2021/08/26 00:48:03;;;;;;;2.38;1.00;;;17.70;60.30;;;;;;5073029;28;20328;-75
2021/08/26 00:50:31;;;;;;;0.77;0.63;;;17.80;61.30;;;;;;5072628;28;20025;-72
2021/08/26 00:52:58;;;;;;;1.48;0.90;;;17.80;61.70;;;;;;5072500;28;20017;-71
2021/08/26 00:55:26;;;;;;;1.67;0.80;;;17.90;61.20;;;;;;5073410;28;20485;-70
2021/08/26 00:57:54;;;;;;;0.52;0.40;;;17.90;63.10;;;;;;5072751;28;20078;-68
2021/08/26 01:00:22;;;;;;;1.75;0.90;;;17.90;61.30;;;;;;5072322;28;20021;-69
2021/08/26 01:03:13;;;;;;;2.30;0.90;;;18.00;62.70;;;;;;5071940;28;20028;-73
2021/08/26 01:06:16;;;;;;;1.92;0.90;;;18.00;61.70;;;;;;5072625;28;20031;-70
2021/08/26 01:08:54;;;;;;;1.13;0.70;;;18.10;60.40;;;;;;5068492;28;20036;-64
2021/08/26 01:11:23;;;;;;;1.38;0.80;;;18.20;60.50;;;;;;5072340;28;20028;-66
2021/08/26 01:13:53;;;;;;;2.58;0.90;;;18.30;60.20;;;;;;5072323;28;20024;-67
2021/08/26 01:16:21;;;;;;;1.25;0.70;;;18.30;60.10;;;;;;5072176;28;20424;-67
2021/08/26 01:18:49;;;;;;;2.88;1.20;;;18.40;59.30;;;;;;5075132;28;20063;-67
2021/08/26 01:21:19;;;;;;;1.20;0.60;;;18.40;58.60;;;;;;5075263;28;20024;-65
2021/08/26 01:23:57;;;;;;;2.22;0.77;;;18.50;59.10;;;;;;5074875;28;20100;-66
2021/08/26 01:26:44;;;;;;;1.73;0.80;;;18.50;60.40;;;;;;5075789;28;20029;-67
2021/08/26 01:29:13;;;;;;;0.93;0.70;;;18.60;59.00;;;;;;5075441;28;20405;-65
2021/08/26 01:31:43;;;;;;;1.30;0.77;;;18.70;59.50;;;;;;5075151;28;20044;-71
2021/08/26 01:34:10;;;;;;;1.42;0.85;;;18.60;60.50;;;;;;5075730;28;20021;-69
2021/08/26 01:36:38;;;;;;;0.95;0.60;;;18.70;61.00;;;;;;5074951;28;20044;-69
2021/08/26 01:39:11;;;;;;;4.40;0.95;;;18.60;60.60;;;;;;5075518;28;20037;-66
2021/08/26 01:41:45;;;;;;;1.65;1.00;;;18.70;58.50;;;;;;5075384;28;20025;-66
2021/08/26 01:44:30;;;;;;;0.98;0.80;;;18.90;55.20;;;;;;5075816;28;20021;-62
2021/08/26 01:47:20;;;;;;;2.80;0.65;;;18.90;56.70;;;;;;5067030;28;20040;-64
2021/08/26 01:49:53;;;;;;;2.83;0.65;;;18.70;57.60;;;;;;5071039;28;20020;-66
2021/08/26 01:52:26;;;;;;;2.28;0.82;;;18.60;58.00;;;;;;5069718;28;20032;-65
2021/08/26 01:55:02;;;;;;;5.50;0.77;;;18.60;59.20;;;;;;5070029;28;20033;-65
2021/08/26 01:57:32;;;;;;;1.15;0.70;;;18.60;58.70;;;;;;5070213;28;20127;-66
2021/08/26 02:00:09;;;;;;;3.17;1.08;;;18.70;58.10;;;;;;5068398;28;20020;-65
2021/08/26 02:02:36;;;;;;;1.25;0.80;;;18.70;58.90;;;;;;5049242;28;20025;-67
2021/08/26 02:05:04;;;;;;;1.60;0.70;;;18.60;59.70;;;;;;5049737;28;20127;-65
2021/08/26 02:07:32;;;;;;;1.42;0.73;;;18.70;58.90;;;;;;5053568;28;20028;-66
2021/08/26 02:09:59;;;;;;;1.88;0.85;;;18.70;60.20;;;;;;5069713;28;20024;-66
2021/08/26 02:12:27;;;;;;;7.43;0.82;;;18.80;58.60;;;;;;5069588;28;20051;-65
2021/08/26 02:14:54;;;;;;;1.38;0.80;;;18.70;60.00;;;;;;5069511;28;20028;-70
2021/08/26 02:17:22;;;;;;;3.92;0.65;;;18.80;59.00;;;;;;5069145;28;20038;-67
2021/08/26 02:19:49;;;;;;;0.65;0.65;;;18.70;60.50;;;;;;5069318;28;20032;-66
2021/08/26 02:22:17;;;;;;;5.63;1.50;;;18.70;60.60;;;;;;5069506;28;20016;-66
2021/08/26 02:24:44;;;;;;;3.80;0.60;;;18.70;58.20;;;;;;5069435;28;20561;-68
2021/08/26 02:27:12;;;;;;;2.83;0.70;;;18.80;60.40;;;;;;5052954;28;20024;-68
2021/08/26 02:29:39;;;;;;;1.52;0.63;;;18.80;60.50;;;;;;5068184;28;20204;-64
2021/08/26 02:32:07;;;;;;;4.50;0.68;;;18.80;59.10;;;;;;5068659;28;20049;-66
2021/08/26 02:34:35;;;;;;;0.90;0.70;;;18.70;58.60;;;;;;5069055;28;20023;-63
2021/08/26 02:37:09;;;;;;;2.40;0.93;;;18.70;61.00;;;;;;5069992;28;20060;-67
2021/08/26 02:39:36;;;;;;;1.73;0.75;;;18.60;59.60;;;;;;5069582;28;20025;-66
2021/08/26 02:42:05;;;;;;;2.72;0.80;;;18.60;59.60;;;;;;5069648;28;20036;-66
2021/08/26 02:44:37;;;;;;;1.58;0.88;;;18.60;60.80;;;;;;5069314;28;20042;-66
2021/08/26 02:47:05;;;;;;;2.08;0.60;;;18.50;62.00;;;;;;5065738;28;20025;-69
2021/08/26 02:49:33;;;;;;;2.05;0.98;;;18.50;60.30;;;;;;5068636;28;20027;-67
2021/08/26 02:52:00;;;;;;;3.28;0.80;;;18.50;61.00;;;;;;5068547;28;20021;-66
2021/08/26 02:54:28;;;;;;;0.90;0.55;;;18.50;61.10;;;;;;5069269;28;20399;-66
2021/08/26 02:56:55;;;;;;;1.20;0.38;;;18.50;60.60;;;;;;5068800;28;20139;-66
2021/08/26 02:59:23;;;;;;;0.77;0.70;;;18.40;62.80;;;;;;5068534;28;20430;-65
2021/08/26 03:01:50;;;;;;;4.45;0.80;;;18.30;63.20;;;;;;5068641;28;20028;-67
2021/08/26 03:04:18;;;;;;;2.15;0.80;;;18.30;63.10;;;;;;5069127;28;20078;-64
2021/08/26 03:06:45;;;;;;;3.83;1.10;;;18.30;61.80;;;;;;5067022;28;20036;-65
2021/08/26 03:09:13;;;;;;;1.15;0.77;;;18.30;62.20;;;;;;5064070;28;20486;-66
2021/08/26 03:11:40;;;;;;;1.05;0.50;;;18.30;62.80;;;;;;5069920;28;20476;-66
2021/08/26 03:14:08;;;;;;;3.22;1.05;;;18.30;63.70;;;;;;5073211;28;20442;-67
2021/08/26 03:16:35;;;;;;;1.58;0.82;;;18.30;61.80;;;;;;5071826;28;20054;-66
2021/08/26 03:19:02;;;;;;;1.02;0.60;;;18.30;63.30;;;;;;5073485;28;20103;-67
2021/08/26 03:21:30;;;;;;;2.38;0.60;;;18.40;63.60;;;;;;5073291;28;20032;-67
2021/08/26 03:23:57;;;;;;;2.47;0.70;;;18.40;64.10;;;;;;5073540;28;20024;-67
2021/08/26 03:26:25;;;;;;;2.45;1.00;;;18.40;64.20;;;;;;5064879;28;20043;-70
2021/08/26 03:28:53;;;;;;;11.18;3.05;;;18.30;63.60;;;;;;5070209;28;20104;-66
2021/08/26 03:31:33;;;;;;;20.83;7.78;;;18.30;62.30;;;;;;5072986;28;20531;-68
2021/08/26 03:34:23;;;;;;;27.50;12.85;;;18.40;62.10;;;;;;5071729;28;20046;-68
2021/08/26 03:36:50;;;;;;;54.85;27.75;;;18.40;62.90;;;;;;5072182;28;20033;-71
2021/08/26 03:39:17;;;;;;;53.05;27.58;;;18.50;62.70;;;;;;5068342;28;20028;-72
2021/08/26 03:41:45;;;;;;;61.92;33.28;;;18.50;62.30;;;;;;5072842;28;20025;-70
2021/08/26 03:44:12;;;;;;;55.47;29.50;;;18.50;63.50;;;;;;5071956;28;20407;-69
2021/08/26 03:46:40;;;;;;;53.83;30.35;;;18.50;63.20;;;;;;5071572;28;20463;-68
2021/08/26 03:49:07;;;;;;;53.55;27.48;;;18.50;63.90;;;;;;5067234;28;20024;-69
2021/08/26 03:51:35;;;;;;;57.53;30.42;;;18.40;63.60;;;;;;5071787;28;20020;-61
2021/08/26 03:54:02;;;;;;;42.85;24.90;;;18.40;63.60;;;;;;5072613;28;20043;-63
2021/08/26 03:56:30;;;;;;;35.33;20.70;;;18.40;62.70;;;;;;5071621;28;20040;-63
2021/08/26 03:58:57;;;;;;;54.47;30.27;;;18.40;62.80;;;;;;5068222;28;20111;-67
2021/08/26 04:01:26;;;;;;;60.42;33.47;;;18.40;65.00;;;;;;5073390;28;20036;-68
2021/08/26 04:03:55;;;;;;;61.65;33.28;;;18.40;64.90;;;;;;5072193;28;20115;-70
2021/08/26 04:06:29;;;;;;;60.88;33.58;;;18.50;65.40;;;;;;5071578;28;20348;-67
2021/08/26 04:09:13;;;;;;;64.78;33.95;;;18.50;65.00;;;;;;5068223;28;20013;-66
2021/08/26 04:11:51;;;;;;;73.93;38.75;;;18.60;65.00;;;;;;5073389;28;20028;-62
2021/08/26 04:14:18;;;;;;;64.43;34.85;;;18.60;66.20;;;;;;5070305;28;20385;-68
2021/08/26 04:16:46;;;;;;;69.95;39.03;;;18.70;63.90;;;;;;5067072;28;20081;-68
2021/08/26 04:19:13;;;;;;;63.75;33.53;;;18.70;64.50;;;;;;5067308;28;20024;-66
2021/08/26 04:21:43;;;;;;;66.72;35.70;;;18.70;63.90;;;;;;5072368;28;20039;-65
2021/08/26 04:24:10;;;;;;;64.40;34.22;;;18.80;63.80;;;;;;5071344;28;20028;-72
2021/08/26 04:26:38;;;;;;;59.10;32.55;;;18.80;64.50;;;;;;5071817;28;20447;-69
2021/08/26 04:29:05;;;;;;;69.28;36.20;;;18.90;62.60;;;;;;5066935;28;20024;-67
2021/08/26 04:31:33;;;;;;;62.20;34.38;;;19.00;65.00;;;;;;5071007;28;20086;-69
2021/08/26 04:34:00;;;;;;;61.53;33.83;;;19.00;64.60;;;;;;5071529;28;20048;-75
2021/08/26 04:36:27;;;;;;;62.75;33.97;;;19.10;64.20;;;;;;5070799;28;20037;-70
2021/08/26 04:38:55;;;;;;;58.45;33.85;;;19.20;64.20;;;;;;5070252;28;20012;-68
2021/08/26 04:41:22;;;;;;;53.45;29.75;;;19.40;63.80;;;;;;5072111;28;20029;-71
2021/08/26 04:43:51;;;;;;;55.75;31.80;;;19.40;63.20;;;;;;5072218;28;20104;-70
2021/08/26 04:46:19;;;;;;;53.25;33.22;;;19.50;63.50;;;;;;5072415;28;20067;-70
2021/08/26 04:48:46;;;;;;;62.72;34.92;;;19.60;62.90;;;;;;5072740;28;20021;-68
2021/08/26 04:51:14;;;;;;;63.88;35.03;;;19.70;62.90;;;;;;5072265;28;20454;-72
2021/08/26 04:53:41;;;;;;;59.30;35.95;;;19.80;62.30;;;;;;5076080;28;20025;-70
2021/08/26 04:56:09;;;;;;;50.60;29.85;;;19.80;62.60;;;;;;5076135;28;20075;-71
2021/08/26 04:58:39;;;;;;;55.67;29.70;;;19.90;61.90;;;;;;5075909;28;20029;-72
2021/08/26 05:01:06;;;;;;;57.47;32.05;;;19.90;62.10;;;;;;5076084;28;20025;-67
2021/08/26 05:03:37;;;;;;;51.50;28.33;;;20.00;61.80;;;;;;5075871;28;20078;-68
2021/08/26 05:06:06;;;;;;;57.50;31.48;;;20.00;61.20;;;;;;5074915;28;20086;-66
2021/08/26 05:08:33;;;;;;;56.22;30.48;;;20.10;61.60;;;;;;5075805;28;20025;-65
2021/08/26 05:11:01;;;;;;;52.80;29.98;;;20.10;61.40;;;;;;5076243;28;20020;-71
2021/08/26 05:13:28;;;;;;;50.50;28.40;;;20.10;61.10;;;;;;5075672;28;20028;-73
2021/08/26 05:15:59;;;;;;;52.55;31.17;;;20.20;61.40;;;;;;5075512;28;20031;-71
2021/08/26 05:18:26;;;;;;;47.78;26.80;;;20.10;60.30;;;;;;5075977;28;20031;-73
2021/08/26 05:20:54;;;;;;;49.30;27.98;;;20.00;60.70;;;;;;5075924;28;20501;-72
2021/08/26 05:23:21;;;;;;;50.47;30.75;;;20.00;61.80;;;;;;5074523;28;20111;-73
2021/08/26 05:25:49;;;;;;;53.97;29.85;;;20.10;61.70;;;;;;5075879;28;20021;-71
2021/08/26 05:28:16;;;;;;;51.53;29.40;;;20.00;61.30;;;;;;5076254;28;20479;-70
2021/08/26 05:30:58;;;;;;;47.65;28.42;;;20.10;61.40;;;;;;5076362;28;20636;-67
2021/08/26 05:33:25;;;;;;;38.55;23.45;;;20.10;60.20;;;;;;5075783;28;20036;-70
2021/08/26 05:35:53;;;;;;;45.58;26.52;;;20.00;60.10;;;;;;5075938;28;20033;-70
2021/08/26 05:38:20;;;;;;;42.15;24.25;;;19.90;61.40;;;;;;5075890;28;20109;-72
2021/08/26 05:40:48;;;;;;;46.78;26.02;;;19.80;60.60;;;;;;5076092;28;20024;-72
2021/08/26 05:43:19;;;;;;;51.10;28.45;;;19.70;61.40;;;;;;5062827;28;20085;-71
2021/08/26 05:45:47;;;;;;;43.53;25.55;;;19.70;62.60;;;;;;5070824;28;20482;-67
2021/08/26 05:48:14;;;;;;;48.50;28.10;;;19.60;62.50;;;;;;5070708;28;20043;-69
2021/08/26 05:50:42;;;;;;;40.80;25.23;;;19.60;63.00;;;;;;5071384;28;20023;-67
2021/08/26 05:53:11;;;;;;;45.97;26.25;;;19.50;62.50;;;;;;5061277;28;20021;-63
2021/08/26 05:55:40;;;;;;;39.20;24.50;;;19.50;63.40;;;;;;5064705;28;20113;-65
2021/08/26 05:58:32;;;;;;;36.72;22.67;;;19.40;62.60;;;;;;5071779;28;20020;-65
2021/08/26 06:01:05;;;;;;;44.53;27.30;;;19.50;64.00;;;;;;5071545;28;20017;-67
2021/08/26 06:03:36;;;;;;;41.03;25.65;;;19.50;63.70;;;;;;5054454;28;20033;-66
2021/08/26 06:06:05;;;;;;;43.15;26.35;;;19.50;63.80;;;;;;5071484;28;20154;-64
2021/08/26 06:08:33;;;;;;;35.15;23.23;;;19.50;63.20;;;;;;5069401;28;20116;-70
2021/08/26 06:11:00;;;;;;;38.25;21.98;;;19.50;63.40;;;;;;5068479;28;20020;-66
2021/08/26 06:13:28;;;;;;;44.33;25.10;;;19.60;62.90;;;;;;5069246;28;20052;-64
2021/08/26 06:15:56;;;;;;;40.47;22.75;;;19.50;63.70;;;;;;5069359;28;20052;-62
2021/08/26 06:18:24;;;;;;;42.22;25.42;;;19.50;63.00;;;;;;5069539;28;20039;-66
2021/08/26 06:21:01;;;;;;;35.50;22.10;;;19.40;64.30;;;;;;5069637;28;20033;-66
2021/08/26 06:23:28;;;;;;;33.85;22.25;;;19.30;64.00;;;;;;5070922;28;20471;-67
2021/08/26 06:25:55;;;;;;;35.85;22.95;;;19.20;64.40;;;;;;5068306;28;20032;-70
2021/08/26 06:28:23;;;;;;;41.00;24.98;;;19.30;64.00;;;;;;5069065;28;20051;-66
2021/08/26 06:30:51;;;;;;;36.22;22.33;;;19.30;64.70;;;;;;5069454;28;20044;-71
2021/08/26 06:33:18;;;;;;;39.85;23.63;;;19.30;63.70;;;;;;5068869;28;20110;-68
2021/08/26 06:35:46;;;;;;;33.88;21.05;;;19.30;65.10;;;;;;5069166;28;20052;-65
2021/08/26 06:38:13;;;;;;;32.60;20.73;;;19.40;64.00;;;;;;5069391;28;20028;-66
2021/08/26 06:40:41;;;;;;;30.77;19.08;;;19.40;64.80;;;;;;5068874;28;20017;-68
2021/08/26 06:43:08;;;;;;;32.15;20.65;;;19.40;63.20;;;;;;5068647;28;20025;-68
2021/08/26 06:45:36;;;;;;;36.25;21.60;;;19.40;63.60;;;;;;5068819;28;20245;-64
2021/08/26 06:48:04;;;;;;;29.85;20.00;;;19.30;64.70;;;;;;5068487;28;20070;-66
2021/08/26 06:50:31;;;;;;;29.73;17.45;;;19.20;64.30;;;;;;5069751;28;20018;-69
2021/08/26 06:52:59;;;;;;;35.88;19.95;;;19.30;63.50;;;;;;5074076;28;20434;-72
2021/08/26 06:55:35;;;;;;;29.00;19.10;;;19.10;64.60;;;;;;5057487;28;20441;-59
2021/08/26 06:58:03;;;;;;;29.73;18.10;;;19.10;64.00;;;;;;5073137;28;20517;-67
2021/08/26 07:00:30;;;;;;;25.60;15.73;;;18.90;64.30;;;;;;5057620;28;20024;-66
2021/08/26 07:02:58;;;;;;;29.88;18.42;;;18.90;64.00;;;;;;5070345;28;20057;-69
2021/08/26 07:05:25;;;;;;;31.45;18.98;;;18.80;65.70;;;;;;5072852;28;20451;-64
2021/08/26 07:07:56;;;;;;;27.88;17.77;;;18.70;65.40;;;;;;5072057;28;20024;-63
2021/08/26 07:10:24;;;;;;;31.88;17.60;;;18.60;66.10;;;;;;5064217;28;20081;-69
2021/08/26 07:12:51;;;;;;;25.13;15.23;;;18.60;66.60;;;;;;5071634;28;20436;-66
2021/08/26 07:15:19;;;;;;;24.52;15.07;;;18.50;66.50;;;;;;5072181;28;20028;-67
2021/08/26 07:17:46;;;;;;;25.00;15.00;;;18.40;66.40;;;;;;5072437;28;20024;-68
2021/08/26 07:20:15;;;;;;;26.58;17.33;;;18.40;67.40;;;;;;5064494;28;20020;-69
2021/08/26 07:22:43;;;;;;;24.13;14.93;;;18.30;68.10;;;;;;5069439;28;20031;-69
2021/08/26 07:25:11;;;;;;;26.77;18.23;;;18.30;67.90;;;;;;5072876;28;20027;-64
2021/08/26 07:27:38;;;;;;;28.25;16.48;;;18.20;68.80;;;;;;5071919;28;20021;-67
2021/08/26 07:30:06;;;;;;;28.23;17.67;;;18.20;68.70;;;;;;5061001;28;20134;-68
2021/08/26 07:32:33;;;;;;;28.02;16.08;;;18.10;69.00;;;;;;5072479;28;20041;-63
2021/08/26 07:35:01;;;;;;;25.30;15.55;;;18.10;69.60;;;;;;5072322;28;20024;-66
2021/08/26 07:37:28;;;;;;;27.23;16.58;;;18.00;69.30;;;;;;5071728;28;20386;-67
2021/08/26 07:40:02;;;;;;;28.33;15.68;;;18.00;69.80;;;;;;5062928;28;20047;-69
2021/08/26 07:42:29;;;;;;;25.45;15.20;;;18.00;70.00;;;;;;5072593;28;20491;-70
2021/08/26 07:45:03;;;;;;;21.80;13.82;;;17.90;69.90;;;;;;5072266;28;20028;-70
2021/08/26 07:48:00;;;;;;;21.42;13.50;;;17.90;69.70;;;;;;5071628;28;20044;-62
2021/08/26 07:50:48;;;;;;;25.02;14.90;;;17.90;70.50;;;;;;5060039;28;20457;-59
2021/08/26 07:53:19;;;;;;;22.98;13.75;;;17.80;70.70;;;;;;5072297;28;20017;-61
2021/08/26 07:55:46;;;;;;;23.70;14.30;;;17.80;70.60;;;;;;5072040;28;20506;-64
2021/08/26 07:58:14;;;;;;;23.05;14.82;;;17.70;71.40;;;;;;5071891;28;20027;-71
2021/08/26 08:00:41;;;;;;;21.40;14.55;;;17.80;71.20;;;;;;5064050;28;20020;-65
2021/08/26 08:03:09;;;;;;;23.42;13.23;;;17.70;70.70;;;;;;5072659;28;20024;-72
2021/08/26 08:05:36;;;;;;;21.88;13.50;;;17.70;71.30;;;;;;5072161;28;20020;-68
2021/08/26 08:08:04;;;;;;;24.13;14.48;;;17.60;71.40;;;;;;5071656;28;20043;-71
2021/08/26 08:10:31;;;;;;;25.83;15.32;;;17.60;71.50;;;;;;5059648;28;20021;-65
2021/08/26 08:12:59;;;;;;;29.20;15.30;;;17.60;71.50;;;;;;5071702;28;20131;-65
2021/08/26 08:15:26;;;;;;;25.50;14.48;;;17.50;72.00;;;;;;5067400;28;20387;-67
2021/08/26 08:17:53;;;;;;;22.83;13.05;;;17.50;72.00;;;;;;5071301;28;20031;-66
2021/08/26 08:20:21;;;;;;;19.50;12.43;;;17.50;71.80;;;;;;5059204;28;20017;-70
2021/08/26 08:22:49;;;;;;;20.45;13.18;;;17.50;72.00;;;;;;5071993;28;20044;-67
2021/08/26 08:25:16;;;;;;;22.05;12.85;;;17.50;72.10;;;;;;5071591;28;20074;-66
2021/08/26 08:27:44;;;;;;;19.83;12.57;;;17.40;72.10;;;;;;5073219;28;20024;-68
2021/08/26 08:30:11;;;;;;;20.40;13.27;;;17.40;72.20;;;;;;5063491;28;20028;-66
2021/08/26 08:32:39;;;;;;;20.45;13.18;;;17.40;72.20;;;;;;5073853;28;20063;-66
2021/08/26 08:35:07;;;;;;;22.57;14.60;;;17.40;72.30;;;;;;5075474;28;20417;-64
2021/08/26 08:37:35;;;;;;;27.00;12.55;;;17.40;72.60;;;;;;5075103;28;20074;-71
2021/08/26 08:40:02;;;;;;;18.58;11.88;;;17.30;72.50;;;;;;5063972;28;20017;-66
2021/08/26 08:42:32;;;;;;;20.52;12.90;;;17.30;72.80;;;;;;5075551;28;20020;-66
2021/08/26 08:45:01;;;;;;;20.45;11.93;;;17.20;72.80;;;;;;5074116;28;20025;-69
2021/08/26 08:47:34;;;;;;;19.08;12.10;;;17.20;72.70;;;;;;5073000;28;20702;-64
2021/08/26 08:50:02;;;;;;;20.38;12.40;;;17.20;72.80;;;;;;5061664;28;20020;-67
2021/08/26 08:52:32;;;;;;;19.10;11.80;;;17.10;72.80;;;;;;5069366;28;20104;-66
2021/08/26 08:55:00;;;;;;;24.35;12.73;;;17.10;72.80;;;;;;5073495;28;20017;-65
2021/08/26 08:57:27;;;;;;;20.63;11.50;;;17.10;72.80;;;;;;5075230;28;20098;-66
2021/08/26 08:59:55;;;;;;;21.15;11.85;;;17.10;72.80;;;;;;5063122;28;20622;-70
2021/08/26 09:02:22;;;;;;;24.02;14.68;;;17.10;72.90;;;;;;5073449;28;20032;-66
2021/08/26 09:04:58;;;;;;;49.42;28.08;;;17.00;72.80;;;;;;5074755;28;20017;-69
2021/08/26 09:07:27;;;;;;;56.17;31.20;;;17.00;72.90;;;;;;5074196;28;20029;-68
2021/08/26 09:09:56;;;;;;;67.45;38.42;;;17.00;73.20;;;;;;5061608;28;20024;-70
2021/08/26 09:12:47;;;;;;;66.38;37.10;;;17.00;73.20;;;;;;5072598;28;20021;-72
2021/08/26 09:15:23;;;;;;;64.35;39.13;;;17.00;73.40;;;;;;5075770;28;20104;-68
2021/08/26 09:17:59;;;;;;;78.88;44.65;;;17.00;73.30;;;;;;5073387;28;20028;-70
2021/08/26 09:20:27;;;;;;;78.55;46.70;;;17.00;73.40;;;;;;5064797;28;20032;-72
2021/08/26 09:23:06;;;;;;;78.57;45.92;;;17.00;73.40;;;;;;5075274;28;20028;-69
2021/08/26 09:25:33;;;;;;;84.13;46.80;;;17.00;73.40;;;;;;5071530;28;20024;-68
2021/08/26 09:28:01;;;;;;;71.00;42.30;;;16.90;73.30;;;;;;5080899;28;20543;-72
2021/08/26 09:30:30;;;;;;;67.93;45.47;;;16.90;73.40;;;;;;5080325;28;20040;-71
2021/08/26 09:33:01;;;;;;;86.50;48.88;;;16.90;73.40;;;;;;5090067;28;20805;-72
2021/08/26 09:35:34;;;;;;;76.93;48.40;;;16.90;73.50;;;;;;5090100;28;20032;-72
2021/08/26 09:38:02;;;;;;;;;;;16.90;73.50;;;;;;5090729;28;20289;-69
2021/08/26 09:40:32;;;;;;;81.78;49.20;;;16.90;73.40;;;;;;5079988;28;19949;-72
2021/08/26 09:43:07;;;;;;;79.30;50.08;;;16.90;73.40;;;;;;5090096;28;20056;-72
2021/08/26 09:45:37;;;;;;;86.35;52.10;;;16.90;73.40;;;;;;5085681;28;20032;-69
2021/08/26 09:48:15;;;;;;;90.63;52.80;;;16.80;73.40;;;;;;5085753;28;21554;-69
2021/08/26 09:50:48;;;;;;;80.25;50.15;;;16.90;73.40;;;;;;5076364;28;20106;-72
2021/08/26 09:53:18;;;;;;;84.38;50.13;;;16.90;73.40;;;;;;5071141;28;20028;-67
2021/08/26 09:55:57;;;;;;;90.75;53.13;;;16.80;73.30;;;;;;5089791;28;20478;-63
2021/08/26 09:58:27;;;;;;;85.70;52.10;;;16.80;73.30;;;;;;5091283;28;20031;-72
2021/08/26 10:01:18;;;;;;;78.90;48.40;;;16.80;73.30;;;;;;5082308;28;20012;-67
2021/08/26 10:03:46;;;;;;;84.03;50.65;;;16.80;73.40;;;;;;5085028;28;20028;-63
2021/08/26 10:06:15;;;;;;;79.18;49.45;;;16.80;73.30;;;;;;5072045;28;20513;-65
2021/08/26 10:08:48;;;;;;;80.32;49.92;;;16.80;73.40;;;;;;5089722;28;20024;-65
2021/08/26 10:11:18;;;;;;;82.53;49.50;;;16.80;73.50;;;;;;5089347;28;20093;-63
2021/08/26 10:13:48;;;;;;;84.43;51.88;;;16.80;73.50;;;;;;5075253;28;20051;-61
2021/08/26 10:16:16;;;;;;;92.30;50.67;;;16.80;73.70;;;;;;5071658;28;20556;-66
2021/08/26 10:18:44;;;;;;;86.00;52.08;;;16.80;73.60;;;;;;5093880;28;20114;-66
2021/08/26 10:21:11;;;;;;;83.38;49.83;;;16.80;73.70;;;;;;5088926;28;20023;-67
2021/08/26 10:23:46;;;;;;;82.05;48.42;;;16.70;73.60;;;;;;5085454;28;20023;-65
2021/08/26 10:26:18;;;;;;;79.50;50.00;;;16.70;74.30;;;;;;5086217;28;20020;-69
2021/08/26 10:29:01;;;;;;;80.32;50.45;;;16.70;73.80;;;;;;5073210;28;20023;-62
2021/08/26 10:31:39;;;;;;;78.80;49.22;;;16.70;73.80;;;;;;5088155;28;20040;-68
2021/08/26 10:34:26;;;;;;;76.82;49.35;;;16.70;73.80;;;;;;5086217;28;20027;-68
2021/08/26 10:36:59;;;;;;;81.05;51.20;;;16.70;73.80;;;;;;5088970;28;20036;-66
2021/08/26 10:39:48;;;;;;;78.47;48.45;;;16.70;73.80;;;;;;5089721;28;20043;-68
2021/08/26 10:42:57;;;;;;;79.57;47.60;;;16.70;74.00;;;;;;5084974;28;20042;-65
2021/08/26 10:45:35;;;;;;;74.70;48.00;;;16.70;73.90;;;;;;5086188;28;20024;-65
2021/08/26 10:48:14;;;;;;;85.57;52.38;;;16.70;73.90;;;;;;5089905;28;20020;-67
2021/08/26 10:50:45;;;;;;;77.25;48.65;;;16.70;73.90;;;;;;5088554;28;20491;-56
2021/08/26 10:53:28;;;;;;;77.80;49.15;;;16.70;74.00;;;;;;5085128;28;20020;-56
2021/08/26 10:56:11;;;;;;;;;;;;;;;;;;;;;
2021/08/26 10:59:17;;;;;;;68.40;45.58;;;16.70;73.90;;;;;;5087465;28;20032;-64
2021/08/26 11:02:32;;;;;;;83.75;48.13;;;16.60;73.90;;;;;;5088242;28;20027;-74
2021/08/26 11:05:35;;;;;;;75.90;47.28;;;16.60;73.90;;;;;;5084182;28;20066;-67
2021/08/26 11:08:29;;;;;;;70.13;45.97;;;16.60;74.00;;;;;;5088824;28;20561;-62
2021/08/26 11:10:58;;;;;;;77.65;45.95;;;16.60;74.00;;;;;;5086930;28;20048;-66
2021/08/26 11:13:34;;;;;;;75.82;47.58;;;16.60;74.00;;;;;;5082566;28;20481;-70
2021/08/26 11:16:26;;;;;;;69.55;44.83;;;16.60;74.00;;;;;;5087494;28;20329;-70
2021/08/26 11:19:15;;;;;;;67.53;44.92;;;16.60;74.00;;;;;;5087377;28;20080;-69
2021/08/26 11:21:43;;;;;;;71.93;44.28;;;16.60;74.00;;;;;;5067300;28;20070;-70
2021/08/26 11:24:20;;;;;;;73.00;47.00;;;16.60;73.90;;;;;;5085898;28;20024;-67
2021/08/26 11:26:50;;;;;;;65.72;41.55;;;16.50;74.00;;;;;;5086095;28;20120;-70
2021/08/26 11:29:24;;;;;;;71.57;43.38;;;16.50;74.10;;;;;;5087369;28;20028;-65
2021/08/26 11:31:57;;;;;;;66.20;40.38;;;16.50;74.20;;;;;;5065888;28;20040;-64
2021/08/26 11:34:27;;;;;;;66.53;42.83;;;16.50;74.30;;;;;;5086248;28;20032;-71
2021/08/26 11:37:05;;;;;;;65.20;42.42;;;16.40;74.20;;;;;;5089158;28;20032;-67
2021/08/26 11:39:52;;;;;;;64.57;41.22;;;16.40;74.30;;;;;;5088428;28;20071;-70
2021/08/26 11:42:22;;;;;;;64.55;40.13;;;16.40;74.30;;;;;;5079693;28;20032;-64
2021/08/26 11:45:19;;;;;;;59.50;40.50;;;16.40;74.40;;;;;;5088380;28;20024;-64
2021/08/26 11:47:59;;;;;;;56.85;37.40;;;16.40;74.40;;;;;;5087851;28;20077;-65
2021/08/26 11:50:40;;;;;;;61.67;39.47;;;16.40;74.30;;;;;;5085312;28;20060;-67
2021/08/26 11:53:10;;;;;;;56.80;37.42;;;16.40;74.40;;;;;;5082468;28;21141;-69
2021/08/26 11:56:34;;;;;;;56.22;37.65;;;16.40;74.30;;;;;;5087753;28;20288;-66
2021/08/26 11:58:49;;;;;;;64.35;38.30;;;16.40;74.30;;;;;;5073580;28;20046;-66
2021/08/26 12:01:23;;;;;;;60.88;38.13;;;16.30;74.30;;;;;;5069218;28;20038;-62
2021/08/26 12:03:55;;;;;;;61.63;37.38;;;16.30;74.40;;;;;;5080735;28;20478;-63
2021/08/26 12:06:23;;;;;;;57.08;35.97;;;16.30;74.40;;;;;;5069076;28;20536;-64
2021/08/26 12:09:03;;;;;;;;;;;;;;;;;;;;;
2021/08/26 12:11:31;;;;;;;55.97;36.17;;;16.30;74.30;;;;;;5066021;28;20032;-58
2021/08/26 12:14:19;;;;;;;57.45;36.92;;;16.30;74.40;;;;;;5075759;28;20036;-62
2021/08/26 12:17:00;;;;;;;53.20;34.42;;;16.20;74.50;;;;;;5050587;28;20032;-61
2021/08/26 12:19:35;;;;;;;49.92;35.45;;;16.20;74.50;;;;;;5052444;28;20028;-62
2021/08/26 12:22:12;;;;;;;49.42;33.05;;;16.20;75.10;;;;;;5080986;28;20020;-64
2021/08/26 12:24:57;;;;;;;50.15;33.45;;;16.20;74.50;;;;;;5088520;28;20017;-65
2021/08/26 12:27:27;;;;;;;54.17;34.42;;;16.20;74.60;;;;;;5071041;28;20023;-60
2021/08/26 12:30:26;;;;;;;46.22;31.75;;;16.20;74.90;;;;;;5087999;28;20009;-64
2021/08/26 12:33:23;;;;;;;50.10;32.40;;;16.20;74.80;;;;;;5081936;28;20048;-62
2021/08/26 12:35:58;;;;;;;52.03;34.90;;;16.20;74.70;;;;;;5070626;28;20036;-63
2021/08/26 12:38:36;;;;;;;44.13;30.08;;;16.10;74.80;;;;;;5087861;28;20040;-66
2021/08/26 12:41:07;;;;;;;47.47;32.35;;;16.10;74.80;;;;;;5087735;28;20037;-67
2021/08/26 12:43:52;;;;;;;44.95;30.27;;;16.10;74.90;;;;;;5069014;28;20023;-63
2021/08/26 12:46:31;;;;;;;46.08;28.75;;;16.00;74.90;;;;;;5087760;28;20462;-64
2021/08/26 12:49:19;;;;;;;44.80;30.77;;;16.00;75.00;;;;;;5094662;28;20030;-64
2021/08/26 12:52:00;;;;;;;44.25;29.50;;;16.00;75.10;;;;;;5091470;28;20023;-64
2021/08/26 12:54:41;;;;;;;50.05;29.63;;;16.00;75.20;;;;;;5108752;28;20039;-66
2021/08/26 12:57:27;;;;;;;47.13;28.90;;;16.00;75.30;;;;;;5089268;28;20177;-62
2021/08/26 13:00:01;;;;;;;44.03;29.05;;;16.00;75.30;;;;;;5082775;28;20176;-64
2021/08/26 13:02:29;;;;;;;40.38;28.42;;;15.90;75.40;;;;;;5111900;28;20031;-69